Time;durP1;ratioP1;P1;durP2;ratioP2;P2;SDS_P1;SDS_P2;PMS_P1;PMS_P2;Temp;Humidity;BMP_temperature;BMP_pressure;BME280_temperature;BME280_humidity;BME280_pressure;Samples;Min_cycle;Max_cycle;Signal;HPM_P1;HPM_P2
2022/05/04 00:00:23;;;;;;;8.35;2.30;;;7.30;99.90;;;;;;5114118;28;20056;-79
2022/05/04 00:02:49;;;;;;;19.08;2.60;;;7.20;99.90;;;;;;5111652;28;20047;-79
2022/05/04 00:05:15;;;;;;;17.13;2.95;;;7.20;99.90;;;;;;5130688;27;20076;-79
2022/05/04 00:07:41;;;;;;;10.88;2.50;;;7.20;99.90;;;;;;5127559;27;20050;-79
2022/05/04 00:10:07;;;;;;;10.98;3.13;;;7.20;99.90;;;;;;5130119;27;20065;-79
2022/05/04 00:12:34;;;;;;;16.20;3.50;;;7.20;99.90;;;;;;5108431;28;20107;-79
2022/05/04 00:15:01;;;;;;;13.68;2.90;;;7.20;99.90;;;;;;5112258;28;20475;-79
2022/05/04 00:17:26;;;;;;;11.82;3.38;;;7.20;99.90;;;;;;5113385;28;20050;-79
2022/05/04 00:19:52;;;;;;;8.57;2.72;;;7.20;99.90;;;;;;5112876;28;20043;-79
2022/05/04 00:22:20;;;;;;;17.48;3.17;;;7.20;99.90;;;;;;5111351;28;20433;-79
2022/05/04 00:24:46;;;;;;;9.05;2.40;;;7.20;99.90;;;;;;5114503;28;20083;-79
2022/05/04 00:27:15;;;;;;;14.80;2.58;;;7.20;99.90;;;;;;5111935;28;20063;-79
2022/05/04 00:29:45;;;;;;;13.23;3.75;;;7.30;99.90;;;;;;5112189;28;20130;-79
2022/05/04 00:32:12;;;;;;;6.40;2.30;;;7.20;99.90;;;;;;5113548;28;20448;-79
2022/05/04 00:34:38;;;;;;;11.55;2.35;;;7.20;99.90;;;;;;5114368;28;20047;-79
2022/05/04 00:37:05;;;;;;;6.88;2.70;;;7.20;99.90;;;;;;5112134;28;20048;-79
2022/05/04 00:39:31;;;;;;;11.00;2.42;;;7.20;99.90;;;;;;5112221;28;20035;-79
2022/05/04 00:42:16;;;;;;;11.60;2.83;;;7.20;99.90;;;;;;5112255;28;20505;-79
2022/05/04 00:44:44;;;;;;;9.97;3.10;;;7.20;99.90;;;;;;5112033;28;20440;-79
2022/05/04 00:47:10;;;;;;;9.65;3.33;;;7.20;99.90;;;;;;5114147;28;20050;-79
2022/05/04 00:49:37;;;;;;;13.55;2.70;;;7.30;99.90;;;;;;5110865;28;20044;-79
2022/05/04 00:52:04;;;;;;;13.68;2.72;;;7.20;99.90;;;;;;5111634;28;20517;-79
2022/05/04 00:54:31;;;;;;;13.05;2.55;;;7.20;99.90;;;;;;5111566;27;20055;-79
2022/05/04 00:57:00;;;;;;;8.85;2.30;;;7.20;99.90;;;;;;5102906;28;20054;-79
2022/05/04 00:59:27;;;;;;;9.18;2.72;;;7.20;99.90;;;;;;5111662;28;20525;-79
2022/05/04 01:01:53;;;;;;;16.55;3.15;;;7.20;99.90;;;;;;5111210;28;20058;-79
2022/05/04 01:04:19;;;;;;;15.00;2.67;;;7.20;99.90;;;;;;5112021;28;20049;-79
2022/05/04 01:06:47;;;;;;;10.88;2.85;;;7.20;99.90;;;;;;5111291;28;20130;-79
2022/05/04 01:09:14;;;;;;;13.57;3.10;;;7.20;99.90;;;;;;5112434;28;20118;-79
2022/05/04 01:11:40;;;;;;;14.95;2.72;;;7.20;99.90;;;;;;5113190;28;20043;-79
2022/05/04 01:14:08;;;;;;;11.27;2.65;;;7.20;99.90;;;;;;5112660;28;20079;-79
2022/05/04 01:16:37;;;;;;;7.68;2.30;;;7.10;99.90;;;;;;5113648;28;20044;-79
2022/05/04 01:19:03;;;;;;;12.13;2.67;;;7.10;99.90;;;;;;5107542;28;20047;-79
2022/05/04 01:21:29;;;;;;;11.93;2.35;;;7.10;99.90;;;;;;5112631;28;20044;-79
2022/05/04 01:23:57;;;;;;;15.05;3.17;;;7.10;99.90;;;;;;5111194;28;20043;-79
2022/05/04 01:26:22;;;;;;;8.15;2.35;;;7.10;99.90;;;;;;5111039;28;20097;-79
2022/05/04 01:28:48;;;;;;;10.50;2.63;;;7.20;99.90;;;;;;5112088;28;20502;-79
2022/05/04 01:31:15;;;;;;;8.75;2.60;;;7.20;99.90;;;;;;5113676;28;20035;-79
2022/05/04 01:33:41;;;;;;;9.30;3.03;;;7.20;99.90;;;;;;5112568;28;20390;-79
2022/05/04 01:36:07;;;;;;;9.65;3.15;;;7.20;99.90;;;;;;5116647;28;20047;-79
2022/05/04 01:38:34;;;;;;;12.90;2.70;;;7.20;99.90;;;;;;5114051;28;20044;-79
2022/05/04 01:41:00;;;;;;;11.00;2.60;;;7.20;99.90;;;;;;5116463;28;20096;-79
2022/05/04 01:43:26;;;;;;;7.97;2.63;;;7.20;99.90;;;;;;5117795;28;20048;-79
2022/05/04 01:45:52;;;;;;;9.93;3.22;;;7.20;99.90;;;;;;5115433;28;20046;-79
2022/05/04 01:48:19;;;;;;;9.85;2.85;;;7.20;99.90;;;;;;5117270;28;20040;-79
2022/05/04 01:50:45;;;;;;;9.75;2.35;;;7.10;99.90;;;;;;5116049;28;20047;-79
2022/05/04 01:53:10;;;;;;;17.83;2.70;;;7.20;99.90;;;;;;5116265;28;20105;-79
2022/05/04 01:55:36;;;;;;;13.50;2.67;;;7.20;99.90;;;;;;5116241;28;20515;-79
2022/05/04 01:58:05;;;;;;;8.57;1.95;;;7.10;99.90;;;;;;5115245;28;20394;-79
2022/05/04 02:00:32;;;;;;;12.85;2.33;;;7.20;99.90;;;;;;5116279;28;20038;-79
2022/05/04 02:02:58;;;;;;;8.40;1.92;;;7.20;99.90;;;;;;5114795;28;20044;-79
2022/05/04 02:05:25;;;;;;;8.98;2.25;;;7.20;99.90;;;;;;5117165;28;20073;-79
2022/05/04 02:07:51;;;;;;;13.57;2.38;;;7.20;99.90;;;;;;5115058;28;20563;-79
2022/05/04 02:10:17;;;;;;;12.13;2.38;;;7.20;99.90;;;;;;5116946;28;20125;-79
2022/05/04 02:12:43;;;;;;;9.25;2.40;;;7.20;99.90;;;;;;5113670;28;20079;-79
2022/05/04 02:15:10;;;;;;;12.48;2.60;;;7.20;99.90;;;;;;5115014;28;20048;-79
2022/05/04 02:17:37;;;;;;;8.70;2.53;;;7.20;99.90;;;;;;5115792;28;20100;-79
2022/05/04 02:20:04;;;;;;;8.38;1.95;;;7.20;99.90;;;;;;5111717;28;20086;-79
2022/05/04 02:22:30;;;;;;;9.95;2.28;;;7.10;99.90;;;;;;5113531;28;20395;-79
2022/05/04 02:24:56;;;;;;;10.27;2.53;;;7.20;99.90;;;;;;5114346;28;20044;-79
2022/05/04 02:27:22;;;;;;;8.00;2.90;;;7.10;99.90;;;;;;5115540;28;20051;-79
2022/05/04 02:29:48;;;;;;;14.95;2.78;;;7.20;99.90;;;;;;5112813;28;20055;-79
2022/05/04 02:32:14;;;;;;;7.38;1.95;;;7.20;99.90;;;;;;5116764;28;20069;-79
2022/05/04 02:40:10;;;;;;;;;;;7.10;99.90;;;;;;5115559;28;20293;-79
2022/05/04 02:42:36;;;;;;;14.52;2.67;;;7.10;99.90;;;;;;5113500;28;19920;-79
2022/05/04 02:45:07;;;;;;;13.95;2.70;;;7.00;99.90;;;;;;5115802;28;20043;-79
2022/05/04 02:47:32;;;;;;;6.75;2.20;;;7.00;99.90;;;;;;5116482;28;20048;-79
2022/05/04 02:49:58;;;;;;;16.38;2.70;;;7.10;99.90;;;;;;5113377;28;20046;-79
2022/05/04 02:52:24;;;;;;;12.10;2.30;;;7.00;99.90;;;;;;5113587;28;20035;-79
2022/05/04 02:54:53;;;;;;;6.90;2.30;;;7.10;99.90;;;;;;5114931;28;20526;-79
2022/05/04 02:57:18;;;;;;;13.07;3.15;;;7.00;99.90;;;;;;5114322;28;20067;-79
2022/05/04 02:59:44;;;;;;;16.40;2.55;;;7.00;99.90;;;;;;5113275;28;20402;-79
2022/05/04 03:02:28;;;;;;;10.32;2.55;;;7.10;99.90;;;;;;5132180;27;20115;-79
2022/05/04 03:04:55;;;;;;;14.27;2.55;;;7.00;99.90;;;;;;5113916;28;20054;-79
2022/05/04 03:07:21;;;;;;;12.80;2.33;;;7.00;99.90;;;;;;5114588;28;20479;-79
2022/05/04 03:09:46;;;;;;;11.68;2.50;;;7.00;99.90;;;;;;5114037;28;20039;-79
2022/05/04 03:12:12;;;;;;;12.85;1.98;;;7.00;99.90;;;;;;5114780;28;20090;-79
2022/05/04 03:14:38;;;;;;;13.07;2.83;;;7.00;99.90;;;;;;5112577;28;20040;-79
2022/05/04 03:17:04;;;;;;;9.80;2.28;;;7.00;99.90;;;;;;5114877;28;20525;-79
2022/05/04 03:19:30;;;;;;;11.50;2.20;;;7.00;99.90;;;;;;5113644;28;20044;-79
2022/05/04 03:21:56;;;;;;;12.48;2.28;;;7.00;99.90;;;;;;5106476;28;20044;-79
2022/05/04 03:24:21;;;;;;;6.53;1.98;;;7.00;99.90;;;;;;5112522;28;20452;-79
2022/05/04 03:26:47;;;;;;;12.10;2.80;;;7.00;99.90;;;;;;5111828;28;20059;-79
2022/05/04 03:29:14;;;;;;;8.10;2.58;;;7.00;99.90;;;;;;5115425;28;20120;-79
2022/05/04 03:31:40;;;;;;;11.10;2.85;;;7.00;99.90;;;;;;5113399;28;20128;-79
2022/05/04 03:34:06;;;;;;;11.73;1.88;;;7.00;99.90;;;;;;5114137;28;20371;-79
2022/05/04 03:36:32;;;;;;;6.55;1.60;;;7.00;99.90;;;;;;5113007;27;20086;-79
2022/05/04 03:39:01;;;;;;;5.45;1.80;;;7.00;99.90;;;;;;5125252;27;20450;-79
2022/05/04 03:41:27;;;;;;;5.18;2.50;;;7.00;99.90;;;;;;5112436;28;20047;-79
2022/05/04 03:43:53;;;;;;;13.77;2.13;;;7.00;99.90;;;;;;5115278;28;20047;-79
2022/05/04 03:46:21;;;;;;;9.02;2.08;;;7.00;99.90;;;;;;5112899;28;20036;-79
2022/05/04 03:48:48;;;;;;;16.55;2.22;;;7.00;99.90;;;;;;5114128;28;20364;-79
2022/05/04 03:51:18;;;;;;;10.90;2.08;;;7.00;99.90;;;;;;5112472;28;20102;-79
2022/05/04 03:53:45;;;;;;;11.75;2.15;;;7.00;99.90;;;;;;5114054;27;20074;-79
2022/05/04 03:56:11;;;;;;;10.38;1.90;;;7.00;99.90;;;;;;5113066;28;20035;-79
2022/05/04 03:58:37;;;;;;;10.40;2.67;;;6.90;99.90;;;;;;5113640;28;20035;-79
2022/05/04 04:01:04;;;;;;;12.85;2.45;;;6.90;99.90;;;;;;5112436;28;20491;-79
2022/05/04 04:03:30;;;;;;;9.52;2.63;;;6.90;99.90;;;;;;5114698;28;20067;-79
2022/05/04 04:05:56;;;;;;;11.48;1.98;;;6.90;99.90;;;;;;5112627;28;20379;-79
2022/05/04 04:08:22;;;;;;;10.60;3.05;;;6.90;99.90;;;;;;5114483;28;20039;-79
2022/05/04 04:10:49;;;;;;;13.40;2.10;;;6.90;99.90;;;;;;5113618;28;20379;-79
2022/05/04 04:13:15;;;;;;;9.70;2.05;;;6.90;99.90;;;;;;5118212;27;20397;-79
2022/05/04 04:15:41;;;;;;;8.18;2.40;;;6.90;99.90;;;;;;5109826;28;20035;-79
2022/05/04 04:18:08;;;;;;;10.90;2.17;;;6.90;99.90;;;;;;5114556;28;20035;-79
2022/05/04 04:23:18;;;;;;;7.22;1.70;;;6.90;99.90;;;;;;5112642;28;20047;-79
2022/05/04 04:25:44;;;;;;;15.05;2.33;;;6.90;99.90;;;;;;5112168;28;20054;-79
2022/05/04 04:28:10;;;;;;;9.82;1.90;;;6.90;99.90;;;;;;5113631;28;20059;-79
2022/05/04 04:30:37;;;;;;;8.25;2.00;;;6.90;99.90;;;;;;5112987;28;20510;-79
2022/05/04 04:33:05;;;;;;;10.95;1.98;;;6.90;99.90;;;;;;5113264;28;20039;-79
2022/05/04 04:35:32;;;;;;;10.48;2.35;;;6.90;99.90;;;;;;5111164;28;20486;-79
2022/05/04 04:37:58;;;;;;;8.20;2.42;;;7.00;99.90;;;;;;5114502;27;20124;-79
2022/05/04 04:40:24;;;;;;;8.90;2.75;;;6.90;99.90;;;;;;5119289;27;20086;-79
2022/05/04 04:42:50;;;;;;;8.10;2.17;;;7.00;99.90;;;;;;5113043;28;20046;-79
2022/05/04 04:45:17;;;;;;;12.82;2.83;;;6.90;99.90;;;;;;5111964;28;20154;-79
2022/05/04 04:47:46;;;;;;;12.27;3.08;;;7.00;99.90;;;;;;5114171;28;20036;-79
2022/05/04 04:50:13;;;;;;;15.52;2.28;;;7.00;99.90;;;;;;5111705;28;20050;-79
2022/05/04 04:52:40;;;;;;;7.82;2.03;;;7.00;99.90;;;;;;5113655;28;20517;-80
2022/05/04 04:55:07;;;;;;;8.85;2.10;;;7.10;99.90;;;;;;5111393;28;20546;-79
2022/05/04 04:57:36;;;;;;;5.43;1.70;;;7.10;99.90;;;;;;5113539;28;20043;-79
2022/05/04 05:00:04;;;;;;;10.38;2.35;;;7.10;99.90;;;;;;5095239;28;20100;-79
2022/05/04 05:02:30;;;;;;;6.55;1.90;;;7.20;99.90;;;;;;5112166;28;20047;-79
2022/05/04 05:04:56;;;;;;;9.52;2.35;;;7.20;99.90;;;;;;5112823;28;20065;-79
2022/05/04 05:07:21;;;;;;;8.48;1.70;;;7.20;99.90;;;;;;5115960;28;20130;-79
2022/05/04 05:09:48;;;;;;;11.98;3.08;;;7.20;99.90;;;;;;5114624;28;20541;-79
2022/05/04 05:12:14;;;;;;;13.40;3.20;;;7.20;99.90;;;;;;5117745;28;20051;-79
2022/05/04 05:17:24;;;;;;;9.75;2.25;;;7.30;99.90;;;;;;5117204;28;20436;-79
2022/05/04 05:19:50;;;;;;;6.88;2.42;;;7.30;99.90;;;;;;5118544;27;20044;-79
2022/05/04 05:22:15;;;;;;;12.77;2.40;;;7.30;99.90;;;;;;5117267;28;20093;-79
2022/05/04 05:24:41;;;;;;;10.98;2.42;;;7.30;99.90;;;;;;5116713;28;20043;-79
2022/05/04 05:27:08;;;;;;;13.93;2.65;;;7.40;99.90;;;;;;5117890;28;20055;-79
2022/05/04 05:29:33;;;;;;;14.75;4.45;;;7.40;99.90;;;;;;5117921;28;20043;-79
2022/05/04 05:31:59;;;;;;;12.93;2.95;;;7.50;99.90;;;;;;5115984;28;20467;-80
2022/05/04 05:34:26;;;;;;;8.57;2.70;;;7.50;99.90;;;;;;5117870;28;20071;-79
2022/05/04 05:36:53;;;;;;;10.02;2.88;;;7.60;99.90;;;;;;5118017;27;20503;-79
2022/05/04 05:39:19;;;;;;;13.95;2.40;;;7.60;99.90;;;;;;5116671;28;20104;-79
2022/05/04 05:41:44;;;;;;;11.00;2.20;;;7.70;99.90;;;;;;5117293;28;20039;-79
2022/05/04 05:44:10;;;;;;;8.30;2.35;;;7.70;99.90;;;;;;5117490;28;20055;-79
2022/05/04 05:46:36;;;;;;;9.88;2.40;;;7.70;99.90;;;;;;5116707;28;20043;-79
2022/05/04 05:49:02;;;;;;;9.07;2.22;;;7.80;99.90;;;;;;5117514;28;20152;-79
2022/05/04 05:51:28;;;;;;;16.33;2.20;;;7.80;99.90;;;;;;5116628;28;20083;-79
2022/05/04 05:53:54;;;;;;;12.02;2.35;;;7.90;99.90;;;;;;5133222;27;20379;-78
2022/05/04 05:56:19;;;;;;;22.48;4.38;;;7.90;99.90;;;;;;5117595;27;20462;-79
2022/05/04 05:58:46;;;;;;;9.18;2.30;;;8.00;99.90;;;;;;5116394;28;20093;-78
2022/05/04 06:01:11;;;;;;;11.10;2.70;;;8.00;99.90;;;;;;5117333;28;20054;-79
2022/05/04 06:03:37;;;;;;;9.52;2.58;;;8.00;99.90;;;;;;5117117;27;20122;-79
2022/05/04 06:06:03;;;;;;;9.88;2.80;;;8.10;99.90;;;;;;5116299;28;20046;-78
2022/05/04 06:08:29;;;;;;;11.77;2.05;;;8.10;99.90;;;;;;5115713;28;20040;-78
2022/05/04 06:10:54;;;;;;;11.57;2.38;;;8.20;99.90;;;;;;5132768;27;20122;-78
2022/05/04 06:13:20;;;;;;;8.95;1.70;;;8.20;99.90;;;;;;5124768;27;20031;-78
2022/05/04 06:15:46;;;;;;;14.35;2.97;;;8.20;99.90;;;;;;5116938;28;20520;-78
2022/05/04 06:18:12;;;;;;;8.48;1.88;;;8.30;99.90;;;;;;5114529;28;20052;-79
2022/05/04 06:20:39;;;;;;;9.65;2.30;;;8.30;99.90;;;;;;5116170;28;20047;-79
2022/05/04 06:23:06;;;;;;;11.18;2.35;;;8.40;99.90;;;;;;5116281;28;20417;-78
2022/05/04 06:25:32;;;;;;;10.73;1.90;;;8.40;99.90;;;;;;5115222;27;20475;-78
2022/05/04 06:27:58;;;;;;;9.20;1.90;;;8.50;99.90;;;;;;5115531;27;20046;-78
2022/05/04 06:35:55;;;;;;;13.05;2.67;;;8.50;99.90;;;;;;5114137;28;20540;-78
2022/05/04 06:38:20;;;;;;;6.40;1.80;;;8.50;99.90;;;;;;5116282;28;20047;-78
2022/05/04 06:40:46;;;;;;;9.02;1.98;;;8.50;99.90;;;;;;5115223;27;20088;-78
2022/05/04 06:43:12;;;;;;;9.07;2.17;;;8.50;99.90;;;;;;5116838;27;20051;-78
2022/05/04 06:45:45;;;;;;;11.75;2.45;;;8.60;99.90;;;;;;5115229;28;20048;-78
2022/05/04 06:48:11;;;;;;;6.38;1.73;;;8.60;99.90;;;;;;5115250;28;20046;-78
2022/05/04 06:50:37;;;;;;;20.83;3.22;;;8.60;99.90;;;;;;5116098;28;20130;-78
2022/05/04 06:53:03;;;;;;;6.63;1.40;;;8.60;99.90;;;;;;5115866;28;20499;-78
2022/05/04 06:55:29;;;;;;;7.30;1.83;;;8.70;99.90;;;;;;5114857;28;20049;-78
2022/05/04 06:57:55;;;;;;;6.90;1.70;;;8.70;99.90;;;;;;5114626;28;20048;-78
2022/05/04 07:00:23;;;;;;;8.35;2.42;;;8.80;99.90;;;;;;5117579;27;20047;-78
2022/05/04 07:02:49;;;;;;;15.80;2.30;;;8.80;99.90;;;;;;5134249;27;20078;-78
2022/05/04 07:05:15;;;;;;;10.80;2.10;;;8.80;99.90;;;;;;5134798;27;20088;-78
2022/05/04 07:07:41;;;;;;;13.45;2.50;;;8.80;99.90;;;;;;5115046;27;20046;-78
2022/05/04 07:10:08;;;;;;;8.73;1.90;;;8.80;99.90;;;;;;5113445;28;20418;-78
2022/05/04 07:12:33;;;;;;;8.30;2.50;;;8.90;99.90;;;;;;5114364;28;20047;-79
2022/05/04 07:14:59;;;;;;;8.40;2.60;;;8.90;99.90;;;;;;5115555;28;20044;-78
2022/05/04 07:17:26;;;;;;;10.60;1.95;;;8.90;99.90;;;;;;5115633;27;20036;-78
2022/05/04 07:19:53;;;;;;;6.85;1.73;;;8.90;99.90;;;;;;5115526;28;20047;-78
2022/05/04 07:22:19;;;;;;;5.38;1.73;;;9.00;99.90;;;;;;5113899;28;20432;-78
2022/05/04 07:24:45;;;;;;;8.85;2.42;;;9.00;99.90;;;;;;5114939;28;20043;-78
2022/05/04 07:27:11;;;;;;;11.98;2.10;;;9.00;99.90;;;;;;5114158;28;20043;-79
2022/05/04 07:29:37;;;;;;;10.20;1.88;;;9.20;99.90;;;;;;5115053;28;20044;-79
2022/05/04 07:32:03;;;;;;;10.48;1.85;;;9.30;99.90;;;;;;5113588;28;20055;-78
2022/05/04 07:34:30;;;;;;;11.40;2.28;;;9.40;99.90;;;;;;5118325;27;20051;-78
2022/05/04 07:36:58;;;;;;;9.40;1.77;;;9.40;99.90;;;;;;5125847;27;20043;-78
2022/05/04 07:42:27;;;;;;;7.60;1.73;;;9.40;99.90;;;;;;5115008;28;20051;-78
2022/05/04 07:45:12;;;;;;;10.40;2.45;;;9.50;99.90;;;;;;5114396;28;20047;-78
2022/05/04 07:47:39;;;;;;;11.70;2.28;;;9.60;99.90;;;;;;5115020;28;20380;-78
2022/05/04 07:50:07;;;;;;;13.82;2.67;;;9.60;99.90;;;;;;5113988;28;20039;-78
2022/05/04 07:52:34;;;;;;;8.80;2.45;;;9.70;99.90;;;;;;5112952;27;20192;-78
2022/05/04 07:55:00;;;;;;;9.55;2.30;;;9.70;99.90;;;;;;5113696;28;20065;-78
2022/05/04 07:57:26;;;;;;;7.20;2.13;;;9.60;99.90;;;;;;5114971;28;20089;-78
2022/05/04 08:05:23;;;;;;;7.97;1.83;;;9.70;99.90;;;;;;5101520;28;20374;-79
2022/05/04 08:07:48;;;;;;;10.20;2.10;;;9.70;99.90;;;;;;5113957;28;20096;-80
2022/05/04 08:10:14;;;;;;;16.10;1.98;;;9.80;99.90;;;;;;5102841;28;20048;-78
2022/05/04 08:12:40;;;;;;;8.95;1.98;;;9.60;99.90;;;;;;5098124;28;20527;-79
2022/05/04 08:15:07;;;;;;;10.13;2.38;;;9.70;99.90;;;;;;5102967;28;20087;-78
2022/05/04 08:17:33;;;;;;;10.82;2.53;;;9.70;99.90;;;;;;5097239;28;20036;-78
2022/05/04 08:19:59;;;;;;;7.90;2.30;;;9.70;99.90;;;;;;5113716;28;20048;-78
2022/05/04 08:22:26;;;;;;;7.28;1.95;;;9.80;99.90;;;;;;5112070;28;20118;-79
2022/05/04 08:24:52;;;;;;;7.63;1.58;;;9.90;99.90;;;;;;5093726;28;20048;-78
2022/05/04 08:27:19;;;;;;;7.50;1.88;;;9.90;99.90;;;;;;5094863;28;20047;-78
2022/05/04 08:29:45;;;;;;;7.95;1.95;;;9.90;99.90;;;;;;5093754;28;20495;-78
2022/05/04 08:32:11;;;;;;;9.55;1.75;;;10.00;99.90;;;;;;5094317;28;20442;-79
2022/05/04 08:34:37;;;;;;;12.80;2.35;;;10.00;99.90;;;;;;5091625;28;20044;-78
2022/05/04 08:37:03;;;;;;;13.43;3.10;;;10.10;99.90;;;;;;5094411;28;20051;-78
2022/05/04 08:39:29;;;;;;;7.90;1.80;;;10.20;99.90;;;;;;5096794;28;20051;-78
2022/05/04 08:41:56;;;;;;;13.57;2.45;;;10.20;99.90;;;;;;5095445;28;20097;-78
2022/05/04 08:44:23;;;;;;;6.43;1.80;;;10.30;99.90;;;;;;5093488;28;20518;-78
2022/05/04 08:46:50;;;;;;;8.23;1.70;;;10.50;99.90;;;;;;5102820;28;20399;-78
2022/05/04 08:49:19;;;;;;;8.57;2.35;;;10.60;99.90;;;;;;5093037;28;20173;-78
2022/05/04 08:51:45;;;;;;;13.70;2.15;;;10.70;99.90;;;;;;5097284;28;20047;-77
2022/05/04 08:54:13;;;;;;;6.28;1.38;;;10.80;99.90;;;;;;5110274;28;20044;-78
2022/05/04 08:56:39;;;;;;;9.52;2.42;;;10.70;99.90;;;;;;5112956;28;20073;-78
2022/05/04 08:59:07;;;;;;;8.90;1.95;;;10.70;99.90;;;;;;5111996;28;20054;-78
2022/05/04 09:01:37;;;;;;;11.25;2.20;;;10.60;99.90;;;;;;5097505;28;20052;-78
2022/05/04 09:04:03;;;;;;;10.15;2.10;;;10.50;99.90;;;;;;5093843;28;20494;-78
2022/05/04 09:06:31;;;;;;;10.20;2.30;;;10.50;99.90;;;;;;5092122;28;20109;-78
2022/05/04 09:09:14;;;;;;;7.25;1.77;;;10.30;99.90;;;;;;5103935;28;20035;-78
2022/05/04 09:11:46;;;;;;;9.38;2.47;;;10.30;99.90;;;;;;5092444;28;20048;-78
2022/05/04 09:14:19;;;;;;;11.73;2.20;;;10.40;99.90;;;;;;5093919;28;20047;-78
2022/05/04 09:16:47;;;;;;;13.03;2.17;;;10.40;99.90;;;;;;5091235;28;20048;-78
2022/05/04 09:19:17;;;;;;;12.95;2.85;;;10.70;99.90;;;;;;5102831;28;20115;-78
2022/05/04 09:21:47;;;;;;;6.05;2.10;;;11.10;99.90;;;;;;5107548;28;20105;-78
2022/05/04 09:24:26;;;;;;;10.93;2.30;;;11.30;99.90;;;;;;5092960;28;20561;-77
2022/05/04 09:26:58;;;;;;;9.88;1.85;;;11.30;99.90;;;;;;5092060;28;20556;-77
2022/05/04 09:29:35;;;;;;;9.18;2.28;;;11.40;99.90;;;;;;5095420;28;20506;-79
2022/05/04 09:32:13;;;;;;;7.90;1.88;;;11.40;99.90;;;;;;5112262;28;20059;-78
2022/05/04 09:34:39;;;;;;;7.72;2.38;;;11.10;99.90;;;;;;5109131;28;20093;-77
2022/05/04 09:45:36;;;;;;;11.95;2.17;;;10.90;99.90;;;;;;5093433;28;20060;-77
2022/05/04 09:48:04;;;;;;;7.90;2.08;;;10.80;99.90;;;;;;5092923;28;20051;-78
2022/05/04 09:50:37;;;;;;;12.55;2.22;;;10.90;99.90;;;;;;5092917;28;20052;-78
2022/05/04 09:53:03;;;;;;;8.05;2.03;;;11.00;99.90;;;;;;5094631;28;20063;-78
2022/05/04 09:55:29;;;;;;;9.00;1.92;;;11.30;99.90;;;;;;5116583;28;20375;-79
2022/05/04 09:57:56;;;;;;;10.50;2.05;;;11.40;99.90;;;;;;5116224;28;20650;-78
2022/05/04 10:00:24;;;;;;;7.63;2.22;;;11.60;99.90;;;;;;5097142;28;20055;-78
2022/05/04 10:02:52;;;;;;;10.15;2.20;;;11.70;99.90;;;;;;5095544;28;20488;-79
2022/05/04 10:05:20;;;;;;;8.48;1.65;;;11.80;99.90;;;;;;5097122;28;20546;-78
2022/05/04 10:07:50;;;;;;;11.68;2.13;;;11.90;99.80;;;;;;5096494;28;20075;-78
2022/05/04 10:10:19;;;;;;;13.30;2.22;;;11.90;99.90;;;;;;5095778;28;20475;-78
2022/05/04 10:12:45;;;;;;;11.32;1.98;;;12.10;99.90;;;;;;5094690;28;20051;-78
2022/05/04 10:15:17;;;;;;;9.77;2.35;;;12.10;99.90;;;;;;5079069;28;20051;-78
2022/05/04 10:18:07;;;;;;;6.55;2.15;;;12.10;99.90;;;;;;5095304;28;20071;-79
2022/05/04 10:20:55;;;;;;;10.02;2.83;;;12.20;99.30;;;;;;5112660;28;20046;-78
2022/05/04 10:23:27;;;;;;;9.77;1.90;;;12.00;97.70;;;;;;5115647;28;20032;-80
2022/05/04 10:25:57;;;;;;;11.60;2.35;;;11.90;99.90;;;;;;5115835;27;20173;-77
2022/05/04 10:31:35;;;;;;;6.25;2.15;;;12.10;99.60;;;;;;5111003;28;20052;-83
2022/05/04 10:34:06;;;;;;;7.43;2.25;;;12.30;99.90;;;;;;5114566;28;20099;-84
2022/05/04 10:36:32;;;;;;;8.80;1.80;;;12.50;99.90;;;;;;5114750;28;20055;-81
2022/05/04 10:39:02;;;;;;;11.48;2.70;;;12.70;99.70;;;;;;5107162;28;20097;-84
2022/05/04 10:41:38;;;;;;;7.47;1.92;;;12.90;98.00;;;;;;5095345;28;20067;-85
2022/05/04 10:44:09;;;;;;;5.22;1.55;;;12.80;96.80;;;;;;5114068;28;20505;-85
2022/05/04 10:46:38;;;;;;;4.72;1.92;;;12.90;97.30;;;;;;5115168;28;20494;-87
2022/05/04 10:49:05;;;;;;;9.00;1.70;;;12.90;97.80;;;;;;5106948;28;20055;-85
2022/05/04 10:51:38;;;;;;;11.90;2.28;;;12.70;97.30;;;;;;5093157;28;20067;-83
2022/05/04 10:54:13;;;;;;;13.77;2.60;;;12.70;97.80;;;;;;5101489;28;20051;-83
2022/05/04 10:56:49;;;;;;;;;;;13.00;98.90;;;;;;5115108;28;20066;-79
2022/05/04 10:59:31;;;;;;;6.07;1.83;;;13.10;98.20;;;;;;5105452;28;19964;-82
2022/05/04 11:02:04;;;;;;;10.57;2.10;;;12.90;97.30;;;;;;5095081;28;20051;-81
2022/05/04 11:04:31;;;;;;;8.73;2.17;;;12.80;98.10;;;;;;5099521;28;20418;-80
2022/05/04 11:07:06;;;;;;;8.60;2.20;;;12.70;97.00;;;;;;5115922;28;20126;-82
2022/05/04 11:09:42;;;;;;;5.93;1.70;;;12.90;98.70;;;;;;5104980;28;20048;-80
2022/05/04 11:12:12;;;;;;;9.80;2.85;;;13.10;97.10;;;;;;5093897;28;20090;-86
2022/05/04 11:18:19;;;;;;;4.80;1.45;;;12.90;96.20;;;;;;5095256;28;20043;-76
2022/05/04 11:20:49;;;;;;;5.40;2.15;;;12.80;97.40;;;;;;5111863;28;20455;-82
2022/05/04 11:23:25;;;;;;;7.35;2.30;;;12.90;97.30;;;;;;5114525;28;20131;-84
2022/05/04 11:25:52;;;;;;;8.73;2.00;;;12.90;98.10;;;;;;5096418;27;20044;-85
2022/05/04 11:28:19;;;;;;;11.63;2.20;;;13.20;97.90;;;;;;5095070;28;20033;-89
2022/05/04 11:30:45;;;;;;;13.30;3.70;;;13.30;97.00;;;;;;5108454;28;20051;-88
2022/05/04 11:33:15;;;;;;;8.45;2.45;;;13.30;95.30;;;;;;5094577;28;20089;-82
2022/05/04 11:35:45;;;;;;;9.52;2.05;;;13.40;95.90;;;;;;5112970;28;20058;-85
2022/05/04 11:38:18;;;;;;;9.45;1.60;;;13.50;96.70;;;;;;5102864;28;20119;-85
2022/05/04 11:40:46;;;;;;;9.27;2.73;;;13.70;97.40;;;;;;5094851;28;20044;-83
2022/05/04 11:43:33;;;;;;;7.68;2.15;;;13.80;96.30;;;;;;5093708;28;20044;-85
2022/05/04 11:46:06;;;;;;;8.50;2.20;;;13.80;95.60;;;;;;5093097;28;20056;-87
2022/05/04 11:48:32;;;;;;;9.15;2.35;;;13.60;95.70;;;;;;5106004;28;20047;-91
2022/05/04 11:50:58;;;;;;;6.47;1.95;;;13.50;95.20;;;;;;5112338;28;20096;-85
2022/05/04 11:53:25;;;;;;;7.22;1.98;;;13.50;96.60;;;;;;5104172;28;20052;-85
2022/05/04 11:55:51;;;;;;;6.80;2.13;;;13.40;95.90;;;;;;5094412;28;20048;-82
2022/05/04 11:58:17;;;;;;;8.50;2.30;;;13.40;95.50;;;;;;5094315;28;20123;-87
2022/05/04 12:00:43;;;;;;;8.32;2.05;;;13.40;95.60;;;;;;5094265;28;20480;-86
2022/05/04 12:03:10;;;;;;;9.65;2.08;;;13.60;96.10;;;;;;5112725;28;20122;-88
2022/05/04 12:05:38;;;;;;;12.25;2.83;;;13.90;95.70;;;;;;5112513;28;20043;-89
2022/05/04 12:08:06;;;;;;;7.93;1.83;;;14.20;95.50;;;;;;5112926;28;20513;-86
2022/05/04 12:10:34;;;;;;;8.15;3.00;;;14.20;94.50;;;;;;5096576;28;20051;-87
2022/05/04 12:13:01;;;;;;;5.22;2.03;;;14.20;93.30;;;;;;5097547;28;20129;-86
2022/05/04 12:15:29;;;;;;;6.07;2.00;;;14.10;93.40;;;;;;5093574;28;20048;-85
2022/05/04 12:18:02;;;;;;;7.45;2.75;;;14.00;93.10;;;;;;5097104;28;20089;-86
2022/05/04 12:20:28;;;;;;;12.32;2.45;;;14.00;92.90;;;;;;5112292;28;20062;-86
2022/05/04 12:22:55;;;;;;;10.95;2.75;;;13.80;93.50;;;;;;5099485;28;20483;-85
2022/05/04 12:25:25;;;;;;;7.57;2.15;;;13.80;92.60;;;;;;5092348;28;20113;-86
2022/05/04 12:27:56;;;;;;;8.90;2.60;;;13.70;92.70;;;;;;5098421;28;20042;-85
2022/05/04 12:33:09;;;;;;;9.23;2.50;;;13.90;93.50;;;;;;5095977;28;20483;-85
2022/05/04 12:35:43;;;;;;;9.55;2.85;;;14.00;93.80;;;;;;5092822;28;20052;-84
2022/05/04 12:38:13;;;;;;;7.22;2.45;;;14.20;92.20;;;;;;5109699;28;20047;-85
2022/05/04 12:40:39;;;;;;;13.38;2.72;;;14.20;92.20;;;;;;5112237;28;20047;-84
2022/05/04 12:43:06;;;;;;;6.90;2.40;;;14.40;92.60;;;;;;5098192;28;20178;-86
2022/05/04 12:45:36;;;;;;;7.15;2.80;;;14.60;93.50;;;;;;5075714;28;20044;-85
2022/05/04 12:48:10;;;;;;;6.47;2.92;;;14.50;91.30;;;;;;5093440;28;20114;-86
2022/05/04 12:50:37;;;;;;;8.10;2.30;;;14.40;92.50;;;;;;5096502;28;20047;-85
2022/05/04 12:53:05;;;;;;;8.60;2.03;;;14.40;92.70;;;;;;5110135;28;20134;-85
2022/05/04 12:58:16;;;;;;;;;;;14.30;91.40;;;;;;5113497;28;20506;-85
2022/05/04 13:00:42;;;;;;;7.80;2.67;;;14.40;93.40;;;;;;5105414;28;19963;-86
2022/05/04 13:03:11;;;;;;;8.82;2.45;;;14.50;92.80;;;;;;5093087;28;20040;-86
2022/05/04 13:05:39;;;;;;;14.05;3.25;;;14.60;92.20;;;;;;5094072;28;20051;-89
2022/05/04 13:08:05;;;;;;;6.30;2.33;;;14.50;91.90;;;;;;5091395;28;20499;-85
2022/05/04 13:10:31;;;;;;;11.18;2.40;;;14.30;92.00;;;;;;5100637;28;20058;-85
2022/05/04 13:12:58;;;;;;;9.35;3.47;;;14.30;94.00;;;;;;5094170;28;20062;-85
2022/05/04 13:15:24;;;;;;;7.43;2.55;;;14.30;92.90;;;;;;5091431;28;20040;-86
2022/05/04 13:17:51;;;;;;;6.63;2.58;;;14.40;94.30;;;;;;5092905;28;20132;-85
2022/05/04 13:20:18;;;;;;;12.70;2.85;;;14.50;93.80;;;;;;5112337;28;20044;-85
2022/05/04 13:22:44;;;;;;;7.07;2.97;;;14.60;93.70;;;;;;5108046;28;20097;-86
2022/05/04 13:25:10;;;;;;;7.97;3.30;;;14.80;94.40;;;;;;5093921;28;20040;-86
2022/05/04 13:27:37;;;;;;;11.85;3.70;;;15.00;93.10;;;;;;5094711;28;20051;-85
2022/05/04 13:30:06;;;;;;;11.50;3.13;;;15.20;92.10;;;;;;5106976;28;20514;-87
2022/05/04 13:32:32;;;;;;;7.25;3.13;;;15.40;91.00;;;;;;5117790;28;20421;-86
2022/05/04 13:34:58;;;;;;;8.10;2.80;;;15.50;90.50;;;;;;5103160;28;20054;-86
2022/05/04 13:37:23;;;;;;;8.80;3.05;;;15.50;90.20;;;;;;5097051;28;20070;-85